.
WxDataArchive / Data Records for 2007-07-02
2007-07-01 July 2007 2007-07-03

Data Records for Monday, 02 July 2007

Time	Temp	Chill	HIndex	Humid	Dewpt	 Wind 	HiWind	WindDir	Rain 	Barom 
-----	----	-----	------	-----	-----	------	------	-------	-----	----- 
00:00	59.5	59.5	59.5	65	47.7	1	3	90	0.00	30.208 
00:05	59.3	59.3	59.3	65	47.5	1	2	90	0.00	30.208 
00:10	59.2	59.2	59.2	66	47.8	0	1	90	0.00	30.211 
00:15	58.9	58.9	58.9	67	48.0	0	2	90	0.00	30.209 
00:20	58.7	58.7	58.7	67	47.8	0	2	90	0.00	30.210 
00:25	58.6	58.6	58.6	67	47.7	1	2	90	0.00	30.212 
00:30	58.4	58.4	58.4	68	47.9	1	2	90	0.00	30.215 
00:35	58.3	58.3	58.3	68	47.8	0	2	90	0.00	30.217 
00:40	58.1	58.1	58.1	69	48.0	1	5	90	0.00	30.218 
00:45	58.3	58.3	58.3	68	47.8	2	4	112	0.00	30.218 
00:50	58.3	58.3	58.3	68	47.8	2	4	90	0.00	30.217 
00:55	58.3	58.3	58.3	69	48.2	2	5	90	0.00	30.215 
01:00	58.1	58.1	58.1	69	48.0	2	5	90	0.00	30.213 
01:05	58.1	58.1	58.1	69	48.0	1	4	90	0.00	30.219 
01:10	58.1	58.1	58.1	69	48.0	2	4	68	0.00	30.219 
01:15	58.0	58.0	58.0	69	47.9	2	6	90	0.00	30.221 
01:20	58.0	58.0	58.0	69	47.9	2	5	90	0.00	30.221 
01:25	57.8	57.8	57.8	70	48.1	2	4	90	0.00	30.219 
01:30	57.6	57.6	57.6	70	47.9	1	3	90	0.00	30.218 
01:35	57.6	57.6	57.6	71	48.3	2	5	68	0.00	30.218 
01:40	57.5	57.5	57.5	71	48.2	1	4	68	0.00	30.218 
01:45	57.3	57.3	57.3	71	48.0	1	5	68	0.00	30.219 
01:50	57.2	57.2	57.2	71	47.9	1	3	90	0.00	30.220 
01:55	57.0	57.0	57.0	71	47.7	1	4	90	0.00	30.221 
02:00	57.0	57.0	57.0	72	48.1	1	3	90	0.00	30.226 
02:05	56.7	56.7	56.7	71	47.4	2	4	90	0.00	30.224 
02:10	56.7	56.7	56.7	71	47.4	1	3	90	0.00	30.223 
02:15	56.7	56.7	56.7	70	47.0	1	4	90	0.00	30.221 
02:20	56.6	56.6	56.6	71	47.3	1	3	112	0.00	30.224 
02:25	56.3	56.3	56.3	72	47.4	1	3	112	0.00	30.222 
02:30	56.2	56.2	56.2	73	47.7	0	2	112	0.00	30.222 
02:35	55.9	55.9	55.9	73	47.4	0	2	112	0.00	30.222 
02:40	55.6	55.6	55.6	73	47.1	0	1	112	0.00	30.223 
02:45	55.4	55.4	55.4	74	47.3	0	1	112	0.00	30.225 
02:50	55.1	55.1	55.1	75	47.3	0	1	112	0.00	30.225 
02:55	54.8	54.8	54.8	75	47.0	0	1	112	0.00	30.231 
03:00	54.7	54.7	54.7	75	46.9	0	0	---	0.00	30.237 
03:05	54.4	54.4	54.4	76	47.0	0	0	---	0.00	30.238 
03:10	54.1	54.1	54.1	76	46.7	0	0	---	0.00	30.240 
03:15	53.8	53.8	53.8	77	46.8	0	0	---	0.00	30.242 
03:20	53.5	53.5	53.5	77	46.5	0	0	---	0.00	30.246 
03:25	53.2	53.2	53.2	78	46.5	0	0	---	0.00	30.251 
03:30	52.9	52.9	52.9	79	46.6	0	0	---	0.00	30.253 
03:35	52.6	52.6	52.6	80	46.6	0	0	---	0.00	30.253 
03:40	52.3	52.3	52.3	81	46.6	0	0	---	0.00	30.251 
03:45	52.2	52.2	52.2	82	46.9	0	0	---	0.00	30.250 
03:50	51.9	51.9	51.9	83	46.9	0	0	---	0.00	30.253 
03:55	51.9	51.9	51.9	84	47.2	0	0	---	0.00	30.253 
04:00	51.7	51.7	51.7	84	47.0	0	0	---	0.00	30.254 
04:05	51.6	51.6	51.6	84	46.9	0	0	---	0.00	30.256 
04:10	51.6	51.6	51.6	85	47.2	0	0	---	0.00	30.257 
04:15	51.3	51.3	51.3	85	46.9	0	0	---	0.00	30.256 
04:20	51.1	51.1	51.1	86	47.1	0	0	---	0.00	30.256 
04:25	51.0	51.0	51.0	86	47.0	0	0	---	0.00	30.257 
04:30	50.8	50.8	50.8	87	47.1	0	0	---	0.00	30.256 
04:35	50.8	50.8	50.8	88	47.4	0	0	---	0.00	30.255 
04:40	50.7	50.7	50.7	88	47.3	0	0	---	0.00	30.254 
04:45	50.5	50.5	50.5	88	47.1	0	0	---	0.00	30.255 
04:50	50.5	50.5	50.5	88	47.1	0	0	---	0.00	30.256 
04:55	50.5	50.5	50.5	88	47.1	0	0	---	0.00	30.256 
05:00	50.5	50.5	50.5	88	47.1	0	0	---	0.00	30.255 
05:05	50.7	50.7	50.7	87	47.0	0	1	112	0.00	30.258 
05:10	50.7	50.7	50.7	87	47.0	0	0	---	0.00	30.259 
05:15	50.8	50.8	50.8	87	47.1	0	0	---	0.00	30.258 
05:20	51.0	51.0	51.0	86	47.0	0	1	112	0.00	30.259 
05:25	51.0	51.0	51.0	86	47.0	0	0	---	0.00	30.259 
05:30	51.0	51.0	51.0	85	46.7	0	1	112	0.00	30.259 
05:35	51.1	51.1	51.1	84	46.4	0	2	112	0.00	30.258 
05:40	51.3	51.3	51.3	83	46.3	0	1	112	0.00	30.258 
05:45	51.7	51.7	51.7	82	46.4	0	1	112	0.00	30.258 
05:50	51.9	51.9	51.9	81	46.3	0	3	135	0.00	30.258 
05:55	52.2	52.2	52.2	79	45.9	0	3	90	0.00	30.258 
06:00	52.5	52.5	52.5	77	45.5	0	3	90	0.00	30.257 
06:05	52.9	52.9	52.9	76	45.5	0	2	112	0.00	30.258 
06:10	53.3	53.3	53.3	74	45.2	0	2	68	0.00	30.256 
06:15	53.6	53.6	53.6	73	45.2	0	2	90	0.00	30.256 
06:20	53.9	53.9	53.9	73	45.4	0	2	90	0.00	30.256 
06:25	54.5	54.5	54.5	71	45.3	1	2	90	0.00	30.257 
06:30	55.4	55.4	55.4	68	45.0	1	3	90	0.00	30.257 
06:35	56.0	56.0	56.0	68	45.6	1	3	90	0.00	30.259 
06:40	56.5	56.5	56.5	66	45.3	1	4	90	0.00	30.258 
06:45	57.0	57.0	57.0	66	45.8	1	2	112	0.00	30.259 
06:50	57.6	57.6	57.6	65	45.9	1	5	112	0.00	30.254 
06:55	58.1	58.1	58.1	65	46.4	1	2	112	0.00	30.255 
07:00	58.6	58.6	58.6	65	46.9	1	4	90	0.00	30.257 
07:05	59.0	59.0	59.0	64	46.8	0	3	90	0.00	30.262 
07:10	59.5	59.5	59.5	63	46.9	1	4	45	0.00	30.263 
07:15	59.9	59.9	59.9	63	47.3	1	3	90	0.00	30.260 
07:20	60.5	60.5	60.5	61	47.0	1	4	90	0.00	30.263 
07:25	60.9	60.9	60.9	62	47.8	1	3	90	0.00	30.260 
07:30	61.0	61.0	61.0	62	47.9	1	4	90	0.00	30.259 
07:35	61.0	61.0	61.0	62	47.9	2	4	90	0.00	30.260 
07:40	61.2	61.2	61.2	62	48.1	2	5	90	0.00	30.265 
07:45	61.6	61.6	61.6	61	48.0	1	4	90	0.00	30.266 
07:50	61.6	61.6	61.6	60	47.6	3	6	90	0.00	30.266 
07:55	61.8	61.8	61.8	61	48.2	2	3	68	0.00	30.268 
08:00	62.4	62.4	62.4	60	48.3	1	3	112	0.00	30.268 
08:05	63.1	63.1	63.1	59	48.5	2	4	112	0.00	30.267 
08:10	63.1	63.1	63.1	61	49.4	2	4	90	0.00	30.269 
08:15	63.7	63.7	63.7	61	50.0	1	3	90	0.00	30.269 
08:20	63.9	63.9	63.9	61	50.2	2	6	112	0.00	30.267 
08:25	64.0	64.0	64.0	59	49.4	2	4	112	0.00	30.266 
08:30	63.9	63.9	63.9	60	49.7	3	5	90	0.00	30.268 
08:35	64.3	64.3	64.3	61	50.6	1	5	90	0.00	30.267 
08:40	64.8	64.8	64.8	58	49.7	2	6	90	0.00	30.259 
08:45	64.7	64.7	64.7	60	50.5	3	7	90	0.00	30.262 
08:50	64.8	64.8	64.8	60	50.6	2	6	90	0.00	30.263 
08:55	65.3	65.3	65.3	58	50.1	2	5	90	0.00	30.259 
09:00	65.3	65.3	65.3	57	49.7	3	6	90	0.00	30.258 
09:05	65.3	65.3	65.3	56	49.2	2	4	90	0.00	30.256 
09:10	65.8	65.8	65.8	55	49.2	1	4	112	0.00	30.255 
09:15	66.3	66.3	66.3	53	48.6	2	5	68	0.00	30.254 
09:20	66.6	66.6	66.6	52	48.4	2	5	112	0.00	30.253 
09:25	66.4	66.4	66.4	52	48.2	2	4	112	0.00	30.249 
09:30	66.4	66.4	66.4	51	47.7	2	6	112	0.00	30.251 
09:35	66.9	66.9	66.9	52	48.7	3	9	90	0.00	30.246 
09:40	66.3	66.3	66.3	52	48.1	3	7	90	0.00	30.248 
09:45	67.1	67.1	67.1	51	48.4	1	4	112	0.00	30.252 
09:50	67.9	67.9	67.9	50	48.6	2	6	90	0.00	30.248 
09:55	68.1	68.1	68.1	49	48.2	3	10	90	0.00	30.245 
10:00	67.9	67.9	67.9	48	47.5	3	6	90	0.00	30.245 
10:05	68.3	68.3	68.3	48	47.8	1	4	90	0.00	30.243 
10:10	68.3	68.3	68.3	46	46.7	3	7	112	0.00	30.245 
10:15	68.3	68.3	68.3	46	46.7	3	7	112	0.00	30.243 
10:20	68.8	68.8	68.8	46	47.2	3	7	90	0.00	30.244 
10:25	68.9	68.9	68.9	44	46.1	3	6	90	0.00	30.242 
10:30	68.9	68.9	68.9	48	48.4	2	7	90	0.00	30.240 
10:35	69.4	69.4	69.4	46	47.7	4	9	90	0.00	30.240 
10:40	69.6	69.6	69.6	46	47.9	2	7	90	0.00	30.238 
10:45	69.3	69.3	69.3	47	48.2	3	7	90	0.00	30.238 
10:50	69.9	69.9	69.9	47	48.7	2	4	112	0.00	30.236 
10:55	70.1	70.1	70.1	47	48.9	2	5	90	0.00	30.236 
11:00	70.1	70.1	70.1	46	48.3	3	9	90	0.00	30.237 
11:05	70.4	70.4	70.4	46	48.6	3	7	90	0.00	30.237 
11:10	70.4	70.4	70.4	46	48.6	3	9	112	0.00	30.238 
11:15	70.4	70.4	70.4	46	48.6	2	6	90	0.00	30.237 
11:20	70.6	70.6	70.6	47	49.4	3	6	90	0.00	30.237 
11:25	71.3	71.3	71.3	45	48.8	3	9	90	0.00	30.237 
11:30	71.1	71.1	71.1	43	47.5	3	6	90	0.00	30.239 
11:35	70.9	70.9	70.9	43	47.3	3	8	90	0.00	30.238 
11:40	71.1	71.1	71.1	46	49.3	2	6	112	0.00	30.236 
11:45	70.9	70.9	70.9	47	49.7	3	10	90	0.00	30.231 
11:50	71.3	71.3	71.3	46	49.4	3	7	90	0.00	30.234 
11:55	71.5	71.5	71.5	42	47.2	2	6	112	0.00	30.224 
12:00	71.5	71.5	71.5	44	48.4	3	7	90	0.00	30.224 
12:05	72.0	72.0	72.0	45	49.5	2	9	112	0.00	30.222 
12:10	72.0	72.0	72.0	42	47.6	4	11	90	0.00	30.223 
12:15	71.6	71.6	71.6	45	49.1	3	7	90	0.00	30.222 
12:20	71.6	71.6	71.6	44	48.5	3	11	90	0.00	30.222 
12:25	71.8	71.8	71.8	45	49.3	2	5	90	0.00	30.223 
12:30	72.3	72.3	72.3	42	47.9	2	4	90	0.00	30.223 
12:35	72.7	72.7	72.7	43	48.9	2	7	90	0.00	30.222 
12:40	72.8	72.8	72.8	43	49.0	2	5	112	0.00	30.216 
12:45	73.0	73.0	73.0	43	49.2	3	9	112	0.00	30.208 
12:50	73.0	73.0	73.0	41	47.9	3	7	90	0.00	30.208 
12:55	73.2	73.2	73.2	42	48.7	2	9	112	0.00	30.206 
13:00	73.2	73.2	73.2	44	50.0	3	6	112	0.00	30.206 
13:05	73.3	73.3	73.3	44	50.1	3	11	90	0.00	30.207 
13:10	73.5	73.5	73.5	44	50.2	2	5	90	0.00	30.207 
13:15	73.9	73.9	73.9	41	48.7	2	7	112	0.00	30.207 
13:20	74.0	74.0	74.0	42	49.4	4	10	90	0.00	30.207 
13:25	73.7	73.7	73.7	42	49.2	4	10	90	0.00	30.205 
13:30	73.7	73.7	73.7	43	49.8	3	6	90	0.00	30.204 
13:35	73.7	73.7	73.7	42	49.2	2	6	90	0.00	30.197 
13:40	74.0	74.0	74.0	43	50.1	2	5	90	0.00	30.195 
13:45	74.4	74.4	74.4	41	49.1	2	6	90	0.00	30.194 
13:50	74.6	74.6	74.6	41	49.3	2	6	90	0.00	30.194 
13:55	74.4	74.4	74.4	43	50.4	3	7	112	0.00	30.196 
14:00	74.0	74.0	74.0	41	48.8	3	7	90	0.00	30.198 
14:05	74.4	74.4	74.4	41	49.1	2	3	90	0.00	30.195 
14:10	74.7	74.7	74.7	40	48.8	3	7	90	0.00	30.192 
14:15	74.7	74.7	74.7	43	50.7	2	7	90	0.00	30.193 
14:20	74.9	74.9	74.9	42	50.2	2	5	112	0.00	30.191 
14:25	75.1	75.1	77.6	41	49.8	4	7	90	0.00	30.194 
14:30	74.6	74.6	74.6	39	48.0	3	9	90	0.00	30.195 
14:35	75.1	75.1	77.4	38	47.7	1	3	90	0.00	30.196 
14:40	75.1	75.1	77.5	39	48.4	2	6	90	0.00	30.200 
14:45	75.3	75.3	77.5	39	48.6	2	6	112	0.00	30.199 
14:50	75.8	75.8	77.7	38	48.4	0	3	135	0.00	30.195 
14:55	76.3	76.3	77.9	40	50.2	2	7	90	0.00	30.194 
15:00	76.5	76.5	78.0	40	50.4	2	5	90	0.00	30.193 
15:05	76.1	76.1	77.7	36	47.2	2	6	112	0.00	30.193 
15:10	76.0	76.0	77.6	36	47.1	1	4	90	0.00	30.184 
15:15	76.1	76.1	77.7	37	47.9	1	3	90	0.00	30.185 
15:20	76.7	76.7	78.0	37	48.4	2	5	112	0.00	30.188 
15:25	76.7	76.7	78.0	38	49.2	2	7	112	0.00	30.190 
15:30	76.3	76.3	77.9	40	50.2	1	7	90	0.00	30.190 
15:35	76.7	76.7	78.0	37	48.4	1	5	112	0.00	30.187 
15:40	76.5	76.5	77.8	36	47.5	3	7	90	0.00	30.189 
15:45	76.3	76.3	77.8	38	48.8	2	4	112	0.00	30.189 
15:50	76.3	76.3	77.7	35	46.6	2	5	112	0.00	30.187 
15:55	76.1	76.1	77.7	37	47.9	1	2	112	0.00	30.183 
16:00	76.5	76.5	78.0	40	50.4	1	4	112	0.00	30.181 
16:05	76.7	76.7	78.0	38	49.2	2	5	90	0.00	30.184 
16:10	76.5	76.5	77.9	37	48.3	1	4	90	0.00	30.182 
16:15	76.5	76.5	77.9	38	49.0	1	3	90	0.00	30.178 
16:20	76.5	76.5	77.9	38	49.0	1	3	90	0.00	30.178 
16:25	76.5	76.5	77.9	37	48.3	1	3	68	0.00	30.177 
16:30	76.5	76.5	77.9	38	49.0	2	5	112	0.00	30.177 
16:35	76.5	76.5	77.9	38	49.0	1	2	90	0.00	30.175 
16:40	76.7	76.7	78.0	38	49.2	1	4	90	0.00	30.173 
16:45	76.7	76.7	78.0	37	48.4	1	4	112	0.00	30.165 
16:50	76.3	76.3	77.8	38	48.8	3	6	90	0.00	30.165 
16:55	76.1	76.1	77.8	39	49.3	1	3	112	0.00	30.166 
17:00	76.1	76.1	77.7	36	47.2	1	4	90	0.00	30.164 
17:05	76.0	76.0	77.7	38	48.5	1	5	90	0.00	30.161 
17:10	75.6	75.6	77.7	40	49.6	2	7	68	0.00	30.161 
17:15	75.6	75.6	77.6	37	47.5	2	6	90	0.00	30.159 
17:20	75.4	75.4	77.6	39	48.7	0	3	112	0.00	30.157 
17:25	75.3	75.3	77.5	38	47.9	0	1	112	0.00	30.157 
17:30	75.1	75.1	77.5	39	48.4	0	2	112	0.00	30.159 
17:35	75.1	75.1	77.5	40	49.1	1	3	225	0.00	30.158 
17:40	74.9	74.9	74.9	39	48.3	1	4	90	0.00	30.153 
17:45	74.7	74.7	74.7	39	48.1	2	5	90	0.00	30.149 
17:50	74.7	74.7	74.7	40	48.8	1	3	112	0.00	30.150 
17:55	74.9	74.9	74.9	39	48.3	1	3	90	0.00	30.151 
18:00	74.9	74.9	74.9	40	48.9	2	4	112	0.00	30.149 
18:05	74.7	74.7	74.7	40	48.8	1	3	112	0.00	30.144 
18:10	74.6	74.6	74.6	40	48.7	1	4	112	0.00	30.147 
18:15	74.6	74.6	74.6	40	48.7	1	4	90	0.00	30.145 
18:20	74.2	74.2	74.2	39	47.6	2	4	68	0.00	30.145 
18:25	74.0	74.0	74.0	40	48.1	1	3	135	0.00	30.144 
18:30	73.9	73.9	73.9	41	48.7	1	3	135	0.00	30.144 
18:35	73.7	73.7	73.7	41	48.5	1	3	112	0.00	30.143 
18:40	73.5	73.5	73.5	41	48.3	1	4	112	0.00	30.145 
18:45	73.5	73.5	73.5	42	49.0	1	3	112	0.00	30.144 
18:50	73.5	73.5	73.5	42	49.0	0	3	112	0.00	30.144 
18:55	73.5	73.5	73.5	41	48.3	0	2	112	0.00	30.143 
19:00	73.5	73.5	73.5	42	49.0	1	4	112	0.00	30.142 
19:05	73.3	73.3	73.3	41	48.2	1	3	112	0.00	30.142 
19:10	73.3	73.3	73.3	41	48.2	0	2	112	0.00	30.142 
19:15	73.2	73.2	73.2	41	48.1	0	2	112	0.00	30.141 
19:20	73.2	73.2	73.2	41	48.1	0	3	112	0.00	30.141 
19:25	73.0	73.0	73.0	43	49.2	0	2	112	0.00	30.141 
19:30	72.8	72.8	72.8	42	48.4	0	2	112	0.00	30.139 
19:35	72.7	72.7	72.7	44	49.5	0	1	112	0.00	30.138 
19:40	72.5	72.5	72.5	43	48.7	1	4	112	0.00	30.139 
19:45	72.3	72.3	72.3	45	49.8	0	2	90	0.00	30.142 
19:50	72.0	72.0	72.0	46	50.1	0	3	90	0.00	30.142 
19:55	71.6	71.6	71.6	47	50.3	0	1	90	0.00	30.143 
20:00	71.3	71.3	71.3	47	50.0	0	0	---	0.00	30.147 
20:05	70.8	70.8	70.8	49	50.7	0	0	---	0.00	30.147 
20:10	70.1	70.1	70.1	50	50.6	0	0	---	0.00	30.150 
20:15	69.6	69.6	69.6	51	50.7	0	0	---	0.00	30.150 
20:20	69.1	69.1	69.1	52	50.7	0	0	---	0.00	30.153 
20:25	68.6	68.6	68.6	53	50.8	0	1	90	0.00	30.154 
20:30	68.3	68.3	68.3	54	51.0	0	0	---	0.00	30.156 
20:35	67.9	67.9	67.9	55	51.1	0	2	90	0.00	30.154 
20:40	67.8	67.8	67.8	56	51.5	0	1	90	0.00	30.157 
20:45	67.6	67.6	67.6	58	52.3	0	1	90	0.00	30.155 
20:50	67.3	67.3	67.3	58	52.0	0	1	90	0.00	30.158 
20:55	66.9	66.9	66.9	59	52.1	0	0	---	0.00	30.160 
21:00	66.6	66.6	66.6	59	51.8	0	1	90	0.00	30.164 
21:05	66.4	66.4	66.4	61	52.5	0	1	90	0.00	30.161 
21:10	66.3	66.3	66.3	61	52.4	0	0	---	0.00	30.161 
21:15	66.1	66.1	66.1	61	52.3	0	1	90	0.00	30.161 
21:20	66.3	66.3	66.3	60	52.0	1	2	90	0.00	30.162 
21:25	66.4	66.4	66.4	59	51.6	1	3	90	0.00	30.165 
21:30	66.4	66.4	66.4	59	51.6	1	2	90	0.00	30.167 
21:35	66.3	66.3	66.3	60	52.0	1	2	90	0.00	30.166 
21:40	66.1	66.1	66.1	60	51.8	1	4	90	0.00	30.167 
21:45	66.1	66.1	66.1	60	51.8	2	6	90	0.00	30.165 
21:50	66.0	66.0	66.0	60	51.7	2	5	90	0.00	30.169 
21:55	66.0	66.0	66.0	60	51.7	2	4	90	0.00	30.168 
22:00	65.8	65.8	65.8	59	51.1	2	4	68	0.00	30.169 
22:05	65.6	65.6	65.6	60	51.3	2	5	90	0.00	30.163 
22:10	65.5	65.5	65.5	59	50.8	2	4	90	0.00	30.159 
22:15	65.3	65.3	65.3	59	50.6	2	5	90	0.00	30.161 
22:20	65.2	65.2	65.2	58	50.0	3	9	90	0.00	30.161 
22:25	65.2	65.2	65.2	58	50.0	2	5	90	0.00	30.164 
22:30	65.0	65.0	65.0	56	48.9	2	5	90	0.00	30.164 
22:35	65.0	65.0	65.0	56	48.9	2	5	90	0.00	30.164 
22:40	65.0	65.0	65.0	55	48.4	2	5	68	0.00	30.167 
22:45	65.0	65.0	65.0	55	48.4	2	4	90	0.00	30.169 
22:50	64.8	64.8	64.8	55	48.2	2	4	90	0.00	30.169 
22:55	64.7	64.7	64.7	55	48.2	2	6	112	0.00	30.165 
23:00	64.5	64.5	64.5	55	48.0	2	5	90	0.00	30.161 
23:05	64.5	64.5	64.5	54	47.5	2	5	90	0.00	30.161 
23:10	64.5	64.5	64.5	54	47.5	1	4	90	0.00	30.164 
23:15	64.3	64.3	64.3	53	46.8	2	5	90	0.00	30.168 
23:20	64.3	64.3	64.3	53	46.8	2	5	90	0.00	30.170 
23:25	64.2	64.2	64.2	53	46.7	2	6	90	0.00	30.170 
23:30	64.2	64.2	64.2	53	46.7	3	7	90	0.00	30.170 
23:35	64.0	64.0	64.0	53	46.5	2	4	90	0.00	30.166 
23:40	63.9	63.9	63.9	54	46.9	2	5	90	0.00	30.161 
23:45	63.7	63.7	63.7	54	46.7	1	4	68	0.00	30.160 
23:50	63.7	63.7	63.7	54	46.7	1	3	68	0.00	30.164 
23:55	63.7	63.7	63.7	55	47.2	0	1	68	0.00	30.170 

CoCoRaHS
IN-AL-39
A2 Web Hosting
Creative Commons License
GoDaddy
Look for:

loaded 2017-10-18 21:57:35 • last modified 2010-11-18 10:43:29
Privacy PolicyDisclaimer
• wx.awcolley.com is powered by PmWiki v.2002016 •
• all content (unless otherwise noted) © 2017 A W Colley